Time,TemperatureF,DewpointF,PressureIn,WindDirection,WindDirectionDegrees,WindSpeedMPH,WindSpeedGustMPH,Humidity,HourlyPrecipIn,Conditions,Clouds,dailyrainin,SoftwareType,DateUTC
2013-04-02 00:05:00,21.4,15.0,30.15,West,270,2.2,-999.0,76,-99.99,,,0.00,Acu-Link.com,2013-04-02 05:05:00,
2013-04-02 00:20:00,21.0,14.9,30.15,West,270,3.2,-999.0,77,-99.99,,,0.00,Acu-Link.com,2013-04-02 05:20:00,
2013-04-02 00:36:00,20.8,14.7,30.14,West,270,3.2,-999.0,77,-99.99,,,0.00,Acu-Link.com,2013-04-02 05:36:00,
2013-04-02 00:51:00,20.5,14.8,30.15,West,270,2.2,-999.0,78,-99.99,,,0.00,Acu-Link.com,2013-04-02 05:51:00,
2013-04-02 01:21:00,20.3,14.6,30.16,West,270,2.2,-999.0,78,-99.99,,,0.00,Acu-Link.com,2013-04-02 06:21:00,
2013-04-02 01:36:00,19.8,14.1,30.17,WNW,292,4.7,-999.0,78,-99.99,,,0.00,Acu-Link.com,2013-04-02 06:36:00,
2013-04-02 01:52:00,19.2,13.5,30.16,West,270,3.2,-999.0,78,-99.99,,,0.00,Acu-Link.com,2013-04-02 06:52:00,
2013-04-02 02:07:00,18.5,13.1,30.17,West,270,2.2,-999.0,79,-99.99,,,0.00,Acu-Link.com,2013-04-02 07:07:00,
2013-04-02 02:22:00,18.1,13.0,30.18,WNW,292,3.2,-999.0,80,-99.99,,,0.00,Acu-Link.com,2013-04-02 07:22:00,
2013-04-02 02:37:00,18.0,13.2,30.18,SW,225,1.7,-999.0,81,-99.99,,,0.00,Acu-Link.com,2013-04-02 07:37:00,
2013-04-02 02:52:00,17.6,12.8,30.16,NW,315,1.7,-999.0,81,-99.99,,,0.00,Acu-Link.com,2013-04-02 07:52:00,
2013-04-02 03:09:00,17.4,12.9,30.16,NW,315,2.7,-999.0,82,-99.99,,,0.00,Acu-Link.com,2013-04-02 08:09:00,
2013-04-02 03:24:00,16.9,12.4,30.17,West,270,1.7,-999.0,82,-99.99,,,0.00,Acu-Link.com,2013-04-02 08:24:00,
2013-04-02 03:39:00,16.7,12.7,30.15,NW,315,0.0,-999.0,84,-99.99,,,0.00,Acu-Link.com,2013-04-02 08:39:00,
2013-04-02 03:54:00,16.2,12.2,30.17,SW,225,0.0,-999.0,84,-99.99,,,0.00,Acu-Link.com,2013-04-02 08:54:00,
2013-04-02 04:09:00,16.2,12.2,30.16,NW,315,1.7,-999.0,84,-99.99,,,0.00,Acu-Link.com,2013-04-02 09:09:00,
2013-04-02 04:24:00,16.5,12.3,30.18,NW,315,1.1,-999.0,83,-99.99,,,0.00,Acu-Link.com,2013-04-02 09:24:00,
2013-04-02 04:40:00,16.0,11.8,30.18,NW,315,1.1,-999.0,83,-99.99,,,0.00,Acu-Link.com,2013-04-02 09:40:00,
2013-04-02 04:55:00,15.4,11.4,30.17,NW,315,0.0,-999.0,84,-99.99,,,0.00,Acu-Link.com,2013-04-02 09:55:00,
2013-04-02 05:10:00,14.9,11.0,30.19,NW,315,0.0,-999.0,84,-99.99,,,0.00,Acu-Link.com,2013-04-02 10:10:00,
2013-04-02 05:25:00,14.7,11.0,30.19,NW,315,0.0,-999.0,85,-99.99,,,0.00,Acu-Link.com,2013-04-02 10:25:00,
2013-04-02 05:41:00,14.4,11.0,30.20,NW,315,0.0,-999.0,86,-99.99,,,0.00,Acu-Link.com,2013-04-02 10:41:00,
2013-04-02 05:56:00,14.2,11.1,30.19,NW,315,0.0,-999.0,87,-99.99,,,0.00,Acu-Link.com,2013-04-02 10:56:00,
2013-04-02 06:11:00,13.1,9.7,30.20,NW,315,0.0,-999.0,86,-99.99,,,0.00,Acu-Link.com,2013-04-02 11:11:00,
2013-04-02 06:27:00,13.3,10.4,30.19,NW,315,0.0,-999.0,88,-99.99,,,0.00,Acu-Link.com,2013-04-02 11:27:00,
2013-04-02 06:42:00,13.6,10.7,30.21,NW,315,1.1,-999.0,88,-99.99,,,0.00,Acu-Link.com,2013-04-02 11:42:00,
2013-04-02 06:57:00,14.2,11.1,30.22,NW,315,0.0,-999.0,87,-99.99,,,0.00,Acu-Link.com,2013-04-02 11:57:00,
2013-04-02 07:12:00,14.0,10.9,30.21,NW,315,1.1,-999.0,87,-99.99,,,0.00,Acu-Link.com,2013-04-02 12:12:00,
2013-04-02 07:28:00,15.4,11.7,30.21,NW,315,1.7,-999.0,85,-99.99,,,0.00,Acu-Link.com,2013-04-02 12:28:00,
2013-04-02 07:43:00,17.2,12.7,30.23,NNW,337,2.2,-999.0,82,-99.99,,,0.00,Acu-Link.com,2013-04-02 12:43:00,
2013-04-02 07:58:00,19.6,13.9,30.23,WNW,292,3.2,-999.0,78,-99.99,,,0.00,Acu-Link.com,2013-04-02 12:58:00,
2013-04-02 08:13:00,21.0,14.0,30.23,WNW,292,2.7,-999.0,74,-99.99,,,0.00,Acu-Link.com,2013-04-02 13:13:00,
2013-04-02 08:28:00,21.7,13.5,30.23,NW,315,4.2,-999.0,70,-99.99,,,0.00,Acu-Link.com,2013-04-02 13:28:00,
2013-04-02 08:44:00,23.2,14.2,30.23,West,270,1.7,-999.0,68,-99.99,,,0.00,Acu-Link.com,2013-04-02 13:44:00,
2013-04-02 08:59:00,23.2,13.6,30.23,WNW,292,3.7,-999.0,66,-99.99,,,0.00,Acu-Link.com,2013-04-02 13:59:00,
2013-04-02 09:14:00,24.6,14.2,30.24,West,270,5.3,-999.0,64,-99.99,,,0.00,Acu-Link.com,2013-04-02 14:14:00,
2013-04-02 09:29:00,25.2,16.8,30.23,West,270,3.7,-999.0,70,-99.99,,,0.00,Acu-Link.com,2013-04-02 14:29:00,
2013-04-02 09:44:00,26.2,17.1,30.25,NNW,337,5.3,-999.0,68,-99.99,,,0.00,Acu-Link.com,2013-04-02 14:44:00,
2013-04-02 09:59:00,27.1,17.3,30.24,NNW,337,5.3,-999.0,66,-99.99,,,0.00,Acu-Link.com,2013-04-02 14:59:00,
2013-04-02 10:14:00,27.9,17.3,30.26,West,270,5.8,-999.0,64,-99.99,,,0.00,Acu-Link.com,2013-04-02 15:14:00,
2013-04-02 10:30:00,28.2,17.6,30.24,North,0,2.7,-999.0,64,-99.99,,,0.00,Acu-Link.com,2013-04-02 15:30:00,
2013-04-02 10:45:00,29.3,16.8,30.25,NNW,337,5.3,-999.0,59,-99.99,,,0.00,Acu-Link.com,2013-04-02 15:45:00,
2013-04-02 11:00:00,30.2,16.8,30.25,North,0,7.3,-999.0,57,-99.99,,,0.00,Acu-Link.com,2013-04-02 16:00:00,
2013-04-02 11:15:00,30.6,16.8,30.24,West,270,6.3,-999.0,56,-99.99,,,0.00,Acu-Link.com,2013-04-02 16:15:00,
2013-04-02 11:30:00,31.1,16.0,30.25,North,0,7.3,-999.0,53,-99.99,,,0.00,Acu-Link.com,2013-04-02 16:30:00,
2013-04-02 11:46:00,32.9,16.8,30.26,West,270,6.8,-999.0,51,-99.99,,,0.00,Acu-Link.com,2013-04-02 16:46:00,
2013-04-02 12:01:00,33.1,15.6,30.24,NNW,337,5.3,-999.0,48,-99.99,,,0.00,Acu-Link.com,2013-04-02 17:01:00,
2013-04-02 12:31:00,34.3,15.7,30.23,NE,45,6.3,-999.0,46,-99.99,,,0.00,Acu-Link.com,2013-04-02 17:31:00,
2013-04-02 12:46:00,34.3,15.7,30.23,North,0,4.2,-999.0,46,-99.99,,,0.00,Acu-Link.com,2013-04-02 17:46:00,
2013-04-02 13:32:00,34.5,13.3,30.26,North,0,4.2,-999.0,41,-99.99,,,0.00,Acu-Link.com,2013-04-02 18:32:00,
2013-04-02 14:03:00,35.4,15.2,30.24,NNW,337,2.2,-999.0,43,-99.99,,,0.00,Acu-Link.com,2013-04-02 19:03:00,
2013-04-02 14:18:00,36.0,15.2,30.26,SSW,202,5.8,-999.0,42,-99.99,,,0.00,Acu-Link.com,2013-04-02 19:18:00,
2013-04-02 14:49:00,34.9,14.7,30.23,SW,225,4.7,-999.0,43,-99.99,,,0.00,Acu-Link.com,2013-04-02 19:49:00,
2013-04-02 15:04:00,35.1,14.9,30.23,SSW,202,4.2,-999.0,43,-99.99,,,0.00,Acu-Link.com,2013-04-02 20:04:00,
2013-04-02 15:19:00,36.1,16.3,30.23,NNE,22,6.3,-999.0,44,-99.99,,,0.00,Acu-Link.com,2013-04-02 20:19:00,
2013-04-02 15:34:00,36.0,15.7,30.24,NNW,337,3.7,-999.0,43,-99.99,,,0.00,Acu-Link.com,2013-04-02 20:34:00,
2013-04-02 15:49:00,36.7,16.3,30.22,North,0,4.2,-999.0,43,-99.99,,,0.00,Acu-Link.com,2013-04-02 20:49:00,
2013-04-02 16:04:00,37.4,16.4,30.23,WSW,247,4.2,-999.0,42,-99.99,,,0.00,Acu-Link.com,2013-04-02 21:04:00,
2013-04-02 16:20:00,36.7,15.8,30.23,NNW,337,3.2,-999.0,42,-99.99,,,0.00,Acu-Link.com,2013-04-02 21:20:00,
2013-04-02 16:35:00,36.7,15.8,30.24,NNW,337,3.7,-999.0,42,-99.99,,,0.00,Acu-Link.com,2013-04-02 21:35:00,
2013-04-02 17:06:00,37.0,16.1,30.23,NNW,337,2.2,-999.0,42,-99.99,,,0.00,Acu-Link.com,2013-04-02 22:06:00,
2013-04-02 17:21:00,37.8,16.2,30.25,WNW,292,2.7,-999.0,41,-99.99,,,0.00,Acu-Link.com,2013-04-02 22:21:00,
2013-04-02 17:36:00,41.7,18.0,30.24,South,180,3.2,-999.0,38,-99.99,,,0.00,Acu-Link.com,2013-04-02 22:36:00,
2013-04-02 17:51:00,39.6,16.1,30.24,North,0,2.7,-999.0,38,-99.99,,,0.00,Acu-Link.com,2013-04-02 22:51:00,
2013-04-02 18:06:00,37.0,15.5,30.23,North,0,3.2,-999.0,41,-99.99,,,0.00,Acu-Link.com,2013-04-02 23:06:00,
2013-04-02 18:52:00,35.8,15.0,30.25,North,0,1.7,-999.0,42,-99.99,,,0.00,Acu-Link.com,2013-04-02 23:52:00,
2013-04-02 19:07:00,35.8,15.5,30.25,North,0,0.0,-999.0,43,-99.99,,,0.00,Acu-Link.com,2013-04-03 00:07:00,
2013-04-02 19:53:00,30.7,13.8,30.24,North,0,0.0,-999.0,49,-99.99,,,0.00,Acu-Link.com,2013-04-03 00:53:00,
2013-04-02 20:08:00,28.8,13.9,30.23,North,0,0.0,-999.0,53,-99.99,,,0.00,Acu-Link.com,2013-04-03 01:08:00,
2013-04-02 20:24:00,27.5,13.5,30.25,North,0,0.0,-999.0,55,-99.99,,,0.00,Acu-Link.com,2013-04-03 01:24:00,
2013-04-02 20:39:00,26.2,13.9,30.23,North,0,0.0,-999.0,59,-99.99,,,0.00,Acu-Link.com,2013-04-03 01:39:00,
2013-04-02 20:54:00,25.2,13.7,30.24,North,0,0.0,-999.0,61,-99.99,,,0.00,Acu-Link.com,2013-04-03 01:54:00,
2013-04-02 21:09:00,25.2,14.8,30.26,North,0,0.0,-999.0,64,-99.99,,,0.00,Acu-Link.com,2013-04-03 02:09:00,
2013-04-02 21:25:00,24.8,15.1,30.25,North,0,0.0,-999.0,66,-99.99,,,0.00,Acu-Link.com,2013-04-03 02:25:00,
2013-04-02 21:40:00,24.3,15.3,30.26,North,0,0.0,-999.0,68,-99.99,,,0.00,Acu-Link.com,2013-04-03 02:40:00,
2013-04-02 21:55:00,22.8,14.5,30.25,North,0,0.0,-999.0,70,-99.99,,,0.00,Acu-Link.com,2013-04-03 02:55:00,
2013-04-02 22:41:00,22.3,15.3,30.26,North,0,0.0,-999.0,74,-99.99,,,0.00,Acu-Link.com,2013-04-03 03:41:00,
2013-04-02 22:56:00,21.6,14.0,30.26,North,0,0.0,-999.0,72,-99.99,,,0.00,Acu-Link.com,2013-04-03 03:56:00,
2013-04-02 23:27:00,20.8,14.1,30.25,North,0,0.0,-999.0,75,-99.99,,,0.00,Acu-Link.com,2013-04-03 04:27:00,
2013-04-02 23:57:00,20.5,13.9,30.26,North,0,0.0,-999.0,75,-99.99,,,0.00,Acu-Link.com,2013-04-03 04:57:00,